Time;durP1;ratioP1;P1;durP2;ratioP2;P2;SDS_P1;SDS_P2;PMS_P1;PMS_P2;Temp;Humidity;BMP_temperature;BMP_pressure;BME280_temperature;BME280_humidity;BME280_pressure;Samples;Min_cycle;Max_cycle;Signal;HPM_P1;HPM_P2
2023/09/18 00:02:48;;;;;;;13.43;9.65;;;;;;;17.64;100.00;100633.25;5588679;31;34089;-71
2023/09/18 00:05:52;;;;;;;11.63;9.35;;;;;;;17.63;100.00;100636.97;5587887;31;34035;-71
2023/09/18 00:08:55;;;;;;;16.00;10.27;;;;;;;17.57;100.00;100631.59;5588483;31;34049;-71
2023/09/18 00:11:58;;;;;;;13.95;9.30;;;;;;;17.53;100.00;100633.00;5588347;31;33993;-71
2023/09/18 00:15:01;;;;;;;13.52;9.23;;;;;;;17.51;100.00;100627.88;5588534;31;34765;-71
2023/09/18 00:18:05;;;;;;;11.40;9.48;;;;;;;17.50;100.00;100622.72;5588316;31;34783;-71
2023/09/18 00:21:10;;;;;;;13.52;9.40;;;;;;;17.47;100.00;100615.91;5588366;31;34744;-71
2023/09/18 00:24:14;;;;;;;11.60;9.40;;;;;;;17.50;100.00;100618.19;5588574;31;34774;-71
2023/09/18 00:27:17;;;;;;;10.80;9.05;;;;;;;17.46;100.00;100608.91;5588234;31;34053;-71
2023/09/18 00:30:20;;;;;;;12.73;9.43;;;;;;;17.45;100.00;100614.47;5588086;31;34082;-72
2023/09/18 00:33:23;;;;;;;13.88;9.40;;;;;;;17.43;100.00;100611.19;5588080;31;34126;-71
2023/09/18 00:36:26;;;;;;;13.70;9.68;;;;;;;17.41;100.00;100608.69;5588043;31;34164;-71
2023/09/18 00:39:29;;;;;;;10.02;8.85;;;;;;;17.37;100.00;100610.13;5588311;31;34041;-71
2023/09/18 00:42:33;;;;;;;11.68;9.38;;;;;;;17.33;100.00;100617.75;5587898;31;34352;-71
2023/09/18 00:45:39;;;;;;;11.02;9.52;;;;;;;17.37;100.00;100612.81;5587413;31;34336;-71
2023/09/18 00:48:43;;;;;;;11.57;8.88;;;;;;;17.32;100.00;100617.97;5587813;31;34010;-71
2023/09/18 00:51:47;;;;;;;13.80;9.00;;;;;;;17.29;100.00;100610.31;5589806;31;34661;-71
2023/09/18 00:54:51;;;;;;;12.95;9.18;;;;;;;17.23;100.00;100619.22;5589741;31;34076;-71
2023/09/18 00:57:55;;;;;;;13.62;9.45;;;;;;;17.20;100.00;100607.03;5589733;31;34061;-71
2023/09/18 01:01:00;;;;;;;14.73;10.07;;;;;;;17.20;100.00;100614.25;5590425;31;34060;-71
2023/09/18 01:04:04;;;;;;;13.35;9.20;;;;;;;17.19;100.00;100612.59;5577196;31;35009;-71
2023/09/18 01:07:08;;;;;;;12.57;9.55;;;;;;;17.15;100.00;100609.50;5590498;31;34066;-71
2023/09/18 01:10:15;;;;;;;11.43;9.05;;;;;;;17.15;100.00;100609.50;5590324;31;34039;-71
2023/09/18 01:13:23;;;;;;;11.98;9.40;;;;;;;17.14;100.00;100604.31;5589497;31;34159;-71
2023/09/18 01:16:54;;;;;;;13.02;9.85;;;;;;;17.13;100.00;100616.09;5590381;31;34040;-71
2023/09/18 01:19:57;;;;;;;13.82;9.80;;;;;;;17.11;100.00;100615.47;5590372;31;34707;-71
2023/09/18 01:23:02;;;;;;;12.13;9.55;;;;;;;17.12;100.00;100606.41;5590647;31;34780;-71
2023/09/18 01:26:05;;;;;;;14.70;9.90;;;;;;;17.11;100.00;100610.13;5590232;31;34157;-71
2023/09/18 01:29:09;;;;;;;14.15;9.40;;;;;;;17.17;100.00;100606.63;5576887;31;34107;-71
2023/09/18 01:32:12;;;;;;;12.30;9.18;;;;;;;17.12;100.00;100606.41;5589344;31;34041;-71
2023/09/18 01:35:16;;;;;;;12.65;9.50;;;;;;;17.10;100.00;100601.25;5589450;31;34843;-71
2023/09/18 01:38:22;;;;;;;13.73;9.48;;;;;;;17.07;100.00;100609.69;5590241;31;34004;-71
2023/09/18 01:41:26;;;;;;;11.45;9.07;;;;;;;17.01;100.00;100607.00;5590078;31;34090;-71
2023/09/18 01:44:29;;;;;;;12.10;9.85;;;;;;;16.99;100.00;100611.75;5589376;31;34645;-71
2023/09/18 01:47:34;;;;;;;15.13;9.73;;;;;;;16.94;100.00;100607.81;5589994;31;34053;-71
2023/09/18 01:50:40;;;;;;;10.63;9.10;;;;;;;16.89;100.00;100612.16;5590116;31;34236;-71
2023/09/18 01:53:43;;;;;;;11.12;9.35;;;;;;;16.86;100.00;100607.19;5589927;31;34114;-71
2023/09/18 01:56:46;;;;;;;13.27;9.15;;;;;;;16.80;100.00;100605.31;5589940;31;34187;-71
2023/09/18 01:59:48;;;;;;;10.95;9.02;;;;;;;16.80;100.00;100607.97;5590308;31;34635;-72
2023/09/18 02:02:52;;;;;;;13.40;9.85;;;;;;;16.81;100.00;100607.78;5589532;31;34092;-71
2023/09/18 02:06:11;;;;;;;13.85;9.82;;;;;;;16.79;100.00;100609.03;5589880;31;34017;-71
2023/09/18 02:09:14;;;;;;;14.05;9.10;;;;;;;16.74;100.00;100612.31;5589101;31;34805;-72
2023/09/18 02:12:19;;;;;;;12.55;8.93;;;;;;;16.73;100.00;100607.16;5589694;31;34303;-72
2023/09/18 02:15:23;;;;;;;13.55;9.85;;;;;;;16.73;100.00;100609.84;5589856;31;34012;-71
2023/09/18 02:18:27;;;;;;;15.90;10.05;;;;;;;16.71;100.00;100610.03;5589847;31;34162;-72
2023/09/18 02:21:30;;;;;;;11.88;10.10;;;;;;;16.68;100.00;100613.13;5589041;31;34211;-72
2023/09/18 02:24:33;;;;;;;14.85;9.57;;;;;;;16.65;100.00;100610.84;5589828;31;34246;-72
2023/09/18 02:27:37;;;;;;;11.70;10.18;;;;;;;16.59;100.00;100606.31;5589731;31;34755;-71
2023/09/18 02:30:40;;;;;;;11.18;9.15;;;;;;;16.58;100.00;100612.69;5589812;31;34054;-72
2023/09/18 02:33:43;;;;;;;12.13;9.23;;;;;;;16.55;100.00;100613.06;5589677;31;34075;-72
2023/09/18 02:36:48;;;;;;;11.32;9.45;;;;;;;16.57;100.00;100610.16;5589803;31;34150;-72
2023/09/18 02:39:53;;;;;;;12.27;9.75;;;;;;;16.53;100.00;100607.88;5589762;31;34077;-71
2023/09/18 02:42:56;;;;;;;11.35;8.45;;;;;;;16.56;100.00;100611.19;5589568;31;34314;-72
2023/09/18 02:45:59;;;;;;;12.75;9.93;;;;;;;16.50;100.00;100615.50;5589644;31;35121;-72
2023/09/18 02:49:03;;;;;;;11.65;9.32;;;;;;;16.49;100.00;100617.34;5589457;31;34079;-72
2023/09/18 02:52:06;;;;;;;15.27;9.73;;;;;;;16.47;100.00;100623.94;5589423;31;34119;-72
2023/09/18 02:55:10;;;;;;;10.95;9.40;;;;;;;16.45;100.00;100624.16;5589560;31;34713;-72
2023/09/18 02:58:12;;;;;;;11.77;9.38;;;;;;;16.46;100.00;100617.75;5589486;31;34331;-72
2023/09/18 03:01:17;;;;;;;13.35;10.15;;;;;;;16.49;100.00;100617.34;5588672;31;34190;-72
2023/09/18 03:04:20;;;;;;;13.20;9.27;;;;;;;16.45;100.00;100618.78;5589729;31;34846;-72
2023/09/18 03:07:29;;;;;;;11.00;9.00;;;;;;;16.44;100.00;100619.81;5589712;31;34756;-72
2023/09/18 03:10:34;;;;;;;17.45;10.40;;;;;;;16.40;100.00;100625.75;5588534;31;34001;-72
2023/09/18 03:13:37;;;;;;;12.40;10.02;;;;;;;16.36;100.00;100613.81;5588096;31;34234;-72
2023/09/18 03:16:40;;;;;;;13.60;9.80;;;;;;;16.42;100.00;100615.66;5589260;31;34294;-72
2023/09/18 03:19:43;;;;;;;15.38;9.95;;;;;;;16.41;100.00;100617.50;5589188;31;34040;-72
2023/09/18 03:22:46;;;;;;;13.95;10.10;;;;;;;16.43;100.00;100620.81;5589263;31;34057;-72
2023/09/18 03:25:49;;;;;;;14.30;10.18;;;;;;;16.38;100.00;100611.75;5589561;31;34815;-72
2023/09/18 03:28:53;;;;;;;13.52;10.00;;;;;;;16.38;100.00;100607.22;5589578;31;34191;-72
2023/09/18 03:31:58;;;;;;;13.15;9.93;;;;;;;16.42;100.00;100607.63;5589110;31;34025;-72
2023/09/18 03:35:02;;;;;;;13.35;10.00;;;;;;;16.40;100.00;100607.84;5589138;31;34134;-72
2023/09/18 03:38:06;;;;;;;12.70;10.18;;;;;;;16.40;100.00;100607.03;5589043;31;34338;-72
2023/09/18 03:41:09;;;;;;;18.17;10.25;;;;;;;16.37;100.00;100602.87;5589045;31;34314;-72
2023/09/18 03:44:12;;;;;;;11.25;10.00;;;;;;;16.32;100.00;100602.66;5588967;31;34158;-72
2023/09/18 03:47:15;;;;;;;13.43;10.05;;;;;;;16.35;100.00;100604.94;5588824;31;33974;-72
2023/09/18 03:50:18;;;;;;;14.25;10.50;;;;;;;16.31;100.00;100606.37;5588780;31;34050;-72
2023/09/18 03:53:21;;;;;;;17.00;10.48;;;;;;;16.28;100.00;100603.25;5588705;31;34330;-72
2023/09/18 03:56:24;;;;;;;16.45;10.60;;;;;;;16.24;100.00;100605.50;5588056;31;34109;-72
2023/09/18 03:59:27;;;;;;;13.45;10.48;;;;;;;16.25;100.00;100607.16;5588835;31;33835;-72
2023/09/18 04:02:30;;;;;;;12.52;10.40;;;;;;;16.22;100.00;100601.34;5587896;31;34151;-72
2023/09/18 04:05:34;;;;;;;13.43;10.27;;;;;;;16.22;100.00;100604.88;5588316;31;34725;-72
2023/09/18 04:08:37;;;;;;;13.48;11.07;;;;;;;16.18;100.00;100592.06;5588611;31;33967;-72
2023/09/18 04:11:40;;;;;;;14.80;10.27;;;;;;;16.15;100.00;100592.50;5588613;31;34797;-72
2023/09/18 04:14:43;;;;;;;15.05;10.48;;;;;;;16.12;100.00;100591.03;5588243;31;34761;-72
2023/09/18 04:17:47;;;;;;;15.07;10.35;;;;;;;16.12;100.00;100593.69;5588300;31;34138;-72
2023/09/18 04:20:51;;;;;;;13.00;10.57;;;;;;;16.10;100.00;100590.41;5588166;31;34026;-72
2023/09/18 04:23:57;;;;;;;14.10;10.93;;;;;;;16.09;100.00;100586.91;5588440;31;34881;-72
2023/09/18 04:27:01;;;;;;;13.77;11.25;;;;;;;16.05;100.00;100587.50;5590603;31;34134;-72
2023/09/18 04:30:05;;;;;;;17.40;11.30;;;;;;;16.07;100.00;100580.91;5590591;31;34098;-72
2023/09/18 04:33:08;;;;;;;14.18;11.15;;;;;;;16.14;100.00;100582.81;5590584;31;34694;-71
2023/09/18 04:36:12;;;;;;;14.75;11.55;;;;;;;16.11;100.00;100584.03;5589796;31;34148;-71
2023/09/18 04:39:16;;;;;;;13.25;11.07;;;;;;;16.09;100.00;100586.06;5590214;31;34806;-72
2023/09/18 04:42:19;;;;;;;17.42;11.57;;;;;;;16.12;100.00;100591.03;5590428;31;34167;-72
2023/09/18 04:45:22;;;;;;;22.42;12.60;;;;;;;16.13;100.00;100592.69;5590598;31;34029;-72
2023/09/18 04:48:26;;;;;;;164.77;18.75;;;;;;;16.17;100.00;100595.81;5590155;31;34186;-72
2023/09/18 04:51:33;;;;;;;48.58;13.20;;;;;;;16.25;100.00;100598.31;5590065;31;35066;-71
2023/09/18 04:54:36;;;;;;;19.40;11.82;;;;;;;16.33;100.00;100598.12;5590440;31;34662;-71
2023/09/18 04:57:39;;;;;;;13.88;11.32;;;;;;;16.36;100.00;100587.84;5590429;31;34201;-71
2023/09/18 05:00:41;;;;;;;18.90;11.75;;;;;;;16.41;100.00;100595.28;5590405;31;34319;-72
2023/09/18 05:03:45;;;;;;;19.85;10.80;;;;;;;16.51;100.00;100591.19;5590411;31;34143;-72
2023/09/18 05:06:48;;;;;;;15.40;11.52;;;;;;;16.58;100.00;100593.06;5589566;31;34027;-73
2023/09/18 05:09:51;;;;;;;20.42;11.70;;;;;;;16.69;100.00;100581.81;5590173;31;35142;-72
2023/09/18 05:12:58;;;;;;;24.75;11.88;;;;;;;16.72;100.00;100589.44;5589800;31;34458;-72
2023/09/18 05:16:04;;;;;;;14.43;11.32;;;;;;;16.82;100.00;100584.50;5589165;31;34134;-72
2023/09/18 05:19:06;;;;;;;17.08;11.43;;;;;;;16.90;100.00;100584.31;5590211;31;34120;-72
2023/09/18 05:22:10;;;;;;;15.20;11.35;;;;;;;17.01;100.00;100582.87;5590127;31;34497;-72
2023/09/18 05:25:16;;;;;;;106.35;15.32;;;;;;;17.13;100.00;100583.94;5590573;31;34207;-72
2023/09/18 05:28:19;;;;;;;24.25;11.32;;;;;;;17.25;100.00;100582.28;5590105;31;34031;-73
2023/09/18 05:31:22;;;;;;;16.33;10.95;;;;;;;17.31;100.00;100579.59;5589937;31;34066;-72
2023/09/18 05:34:25;;;;;;;17.05;10.73;;;;;;;17.41;100.00;100591.78;5590023;31;34366;-72
2023/09/18 05:37:28;;;;;;;18.02;10.60;;;;;;;17.55;100.00;100593.41;5589337;31;35550;-72
2023/09/18 05:40:32;;;;;;;17.02;11.82;;;;;;;17.59;100.00;100594.66;5590066;31;34275;-72
2023/09/18 05:43:35;;;;;;;15.57;10.90;;;;;;;17.63;100.00;100591.38;5589910;31;34373;-72
2023/09/18 05:46:38;;;;;;;15.73;10.73;;;;;;;17.72;100.00;100579.37;5589419;31;34149;-72
2023/09/18 05:49:42;;;;;;;14.70;10.60;;;;;;;17.80;100.00;100578.34;5589356;31;34115;-73
2023/09/18 05:52:47;;;;;;;14.48;11.05;;;;;;;17.89;100.00;100573.56;5589136;31;34094;-72
2023/09/18 05:55:50;;;;;;;18.10;11.07;;;;;;;17.93;100.00;100580.97;5589087;31;34156;-71
2023/09/18 05:58:57;;;;;;;13.40;10.65;;;;;;;17.98;100.00;100567.75;5589373;31;34529;-72
2023/09/18 06:02:01;;;;;;;14.40;10.38;;;;;;;18.08;100.00;100570.81;5589337;31;34057;-74
2023/09/18 06:05:05;;;;;;;14.85;10.70;;;;;;;18.11;100.00;100570.38;5589501;31;34016;-73
2023/09/18 06:08:08;;;;;;;13.25;9.73;;;;;;;18.18;100.00;100565.84;5589435;31;34088;-73
2023/09/18 06:11:11;;;;;;;20.90;11.25;;;;;;;18.19;100.00;100574.72;5589578;31;34920;-73
2023/09/18 06:14:14;;;;;;;13.90;9.98;;;;;;;18.25;100.00;100566.63;5589274;31;34261;-72
2023/09/18 06:17:17;;;;;;;17.02;9.98;;;;;;;18.36;100.00;100573.19;5588585;31;34131;-72
2023/09/18 06:20:20;;;;;;;13.68;9.95;;;;;;;18.62;100.00;100565.03;5589065;31;34796;-73
2023/09/18 06:23:23;;;;;;;13.07;9.50;;;;;;;18.78;100.00;100565.56;5589227;31;34346;-74
2023/09/18 06:26:27;;;;;;;13.00;9.45;;;;;;;19.04;100.00;100576.13;5589124;31;34148;-74
2023/09/18 06:29:33;;;;;;;14.20;9.90;;;;;;;19.14;100.00;100572.94;5589070;31;34650;-72
2023/09/18 06:32:37;;;;;;;12.85;9.43;;;;;;;19.16;100.00;100570.88;5589364;31;34025;-72
2023/09/18 06:35:41;;;;;;;16.02;9.07;;;;;;;19.42;100.00;100570.62;5588755;31;34111;-72
2023/09/18 06:38:44;;;;;;;15.05;9.63;;;;;;;19.69;100.00;100566.69;5588961;31;34725;-73
2023/09/18 06:41:48;;;;;;;12.27;8.98;;;;;;;19.62;100.00;100568.63;5589198;31;34350;-73
2023/09/18 06:44:52;;;;;;;13.50;8.65;;;;;;;20.37;100.00;100572.78;5588762;31;34357;-73
2023/09/18 06:47:55;;;;;;;22.67;8.85;;;;;;;20.90;100.00;100569.34;5588055;31;34824;-74
2023/09/18 06:51:02;;;;;;;15.90;8.57;;;;;;;21.72;100.00;100567.56;5589085;31;35194;-72
2023/09/18 06:54:06;;;;;;;13.02;8.32;;;;;;;21.56;100.00;100566.37;5588124;31;34033;-73
2023/09/18 06:57:10;;;;;;;13.45;8.18;;;;;;;22.29;100.00;100565.00;5589155;31;32646;-72
2023/09/18 07:00:20;;;;;;;13.30;7.93;;;;;;;22.78;100.00;100564.38;5588777;31;34157;-73
2023/09/18 07:03:25;;;;;;;9.60;7.72;;;;;;;23.15;100.00;100558.47;5589661;31;33208;-73
2023/09/18 07:06:28;;;;;;;11.50;7.60;;;;;;;23.51;100.00;100568.84;5589153;31;34160;-73
2023/09/18 07:09:31;;;;;;;14.70;7.62;;;;;;;23.67;100.00;100559.84;5589390;31;34357;-73
2023/09/18 07:12:39;;;;;;;12.00;8.18;;;;;;;23.46;100.00;100562.53;5589090;31;35050;-72
2023/09/18 07:15:42;;;;;;;12.13;7.28;;;;;;;23.68;100.00;100557.97;5589119;31;34164;-73
2023/09/18 07:18:45;;;;;;;11.50;7.05;;;;;;;24.14;100.00;100564.84;5589024;31;34765;-73
2023/09/18 07:21:49;;;;;;;14.45;7.40;;;;;;;24.38;100.00;100560.00;5589086;31;34700;-73
2023/09/18 07:24:52;;;;;;;11.55;6.93;;;;;;;24.49;99.10;100569.91;5588255;31;34082;-73
2023/09/18 07:27:55;;;;;;;10.70;7.25;;;;;;;24.97;88.86;100561.72;5588899;31;34145;-74
2023/09/18 07:31:05;;;;;;;12.35;7.15;;;;;;;24.23;100.00;100564.16;5588985;31;34875;-74
2023/09/18 07:34:08;;;;;;;9.23;7.15;;;;;;;25.19;92.80;100563.53;5588819;31;34221;-74
2023/09/18 07:37:15;;;;;;;11.88;6.62;;;;;;;25.70;82.44;100567.47;5588606;31;34116;-75
2023/09/18 07:40:18;;;;;;;11.57;6.85;;;;;;;26.50;75.73;100564.28;5588781;31;34173;-74
2023/09/18 07:43:22;;;;;;;9.07;6.30;;;;;;;26.67;73.69;100566.78;5588487;31;33359;-73
2023/09/18 07:46:25;;;;;;;9.05;6.60;;;;;;;26.92;72.93;100563.28;5588633;31;35272;-74
2023/09/18 07:49:28;;;;;;;13.57;6.97;;;;;;;26.57;76.62;100559.44;5588640;31;34060;-74
2023/09/18 07:52:31;;;;;;;9.43;6.45;;;;;;;26.92;73.27;100563.28;5588155;31;34656;-74
2023/09/18 07:55:34;;;;;;;9.43;6.65;;;;;;;26.87;71.03;100560.59;5588342;31;35152;-74
2023/09/18 07:58:40;;;;;;;10.88;6.28;;;;;;;27.44;67.42;100557.56;5587870;31;34043;-73
2023/09/18 08:01:43;;;;;;;29.45;7.35;;;;;;;27.49;67.38;100560.34;5588467;31;34068;-74
2023/09/18 08:04:47;;;;;;;11.65;6.55;;;;;;;28.22;63.01;100547.88;5588136;31;34458;-73
2023/09/18 08:07:51;;;;;;;12.05;5.95;;;;;;;28.20;62.33;100555.50;5588167;31;34153;-74
2023/09/18 08:10:54;;;;;;;8.68;6.10;;;;;;;29.60;57.56;100549.28;5588347;31;34970;-74
2023/09/18 08:13:57;;;;;;;10.20;6.28;;;;;;;27.39;64.70;100542.06;5587089;31;34709;-73
2023/09/18 08:17:00;;;;;;;11.45;6.07;;;;;;;26.04;72.45;100538.81;5588518;31;34403;-73
2023/09/18 08:20:11;;;;;;;19.80;6.20;;;;;;;28.09;63.54;100538.31;5588054;31;34481;-73
2023/09/18 08:23:15;;;;;;;27.02;6.95;;;;;;;29.32;58.31;100531.81;5588142;31;34156;-73
2023/09/18 08:26:18;;;;;;;11.18;6.22;;;;;;;29.55;56.22;100523.94;5587982;31;34276;-75
2023/09/18 08:29:22;;;;;;;9.90;6.10;;;;;;;30.32;52.76;100519.16;5587057;31;33578;-74
2023/09/18 08:32:25;;;;;;;13.70;6.37;;;;;;;30.27;52.98;100511.84;5587589;31;34185;-74
2023/09/18 08:35:29;;;;;;;9.98;5.82;;;;;;;29.57;55.75;100511.63;5587502;31;34170;-73
2023/09/18 08:38:33;;;;;;;13.48;6.07;;;;;;;29.51;55.72;100512.75;5587582;31;34410;-74
2023/09/18 08:41:42;;;;;;;12.23;5.95;;;;;;;30.90;52.65;100509.53;5587464;31;34227;-74
2023/09/18 08:44:51;;;;;;;24.17;6.65;;;;;;;31.16;51.61;100512.69;5587281;31;34334;-74
2023/09/18 08:47:54;;;;;;;;;;;;;;;32.03;48.56;100507.19;5587420;31;34644;-72
2023/09/18 08:50:57;;;;;;;11.90;5.60;;;;;;;30.93;49.77;100510.88;5586877;31;34499;-74
2023/09/18 08:54:03;;;;;;;9.30;6.22;;;;;;;29.27;54.56;100501.78;5586946;31;34049;-74
2023/09/18 08:57:07;;;;;;;11.23;6.10;;;;;;;27.00;68.09;100490.06;5587096;31;34156;-72
2023/09/18 09:00:16;;;;;;;20.48;6.70;;;;;;;25.53;79.82;100491.50;5587064;31;34197;-72
2023/09/18 09:03:19;;;;;;;18.52;7.53;;;;;;;25.49;90.45;100491.22;5587280;31;34077;-73
2023/09/18 09:06:26;;;;;;;15.88;6.55;;;;;;;25.18;93.18;100485.84;5587051;31;34795;-71
2023/09/18 09:09:30;;;;;;;11.98;7.22;;;;;;;24.74;98.26;100487.94;5586752;31;34102;-72
2023/09/18 09:12:55;;;;;;;12.70;7.07;;;;;;;24.34;100.00;100491.91;5587812;31;34142;-73
2023/09/18 09:16:00;;;;;;;10.88;7.12;;;;;;;24.30;100.00;100496.22;5589861;31;34028;-72
2023/09/18 09:19:03;;;;;;;14.52;7.60;;;;;;;24.41;100.00;100499.81;5589961;31;34043;-73
2023/09/18 09:22:07;;;;;;;11.32;7.60;;;;;;;24.24;100.00;100502.63;5589776;31;34322;-72
2023/09/18 09:25:20;;;;;;;12.98;7.18;;;;;;;24.22;100.00;100492.03;5589838;31;34887;-72
2023/09/18 09:28:30;;;;;;;11.50;7.07;;;;;;;24.15;100.00;100494.13;5589869;31;34861;-73
2023/09/18 09:31:33;;;;;;;13.82;7.40;;;;;;;24.10;100.00;100488.63;5590176;31;34064;-71
2023/09/18 09:34:37;;;;;;;24.35;8.05;;;;;;;24.49;100.00;100489.34;5589650;31;34231;-72
2023/09/18 09:37:40;;;;;;;22.33;7.78;;;;;;;24.58;100.00;100482.38;5589975;31;34012;-74
2023/09/18 09:40:43;;;;;;;19.40;7.95;;;;;;;24.64;100.00;100485.97;5590209;31;34756;-74
2023/09/18 09:43:47;;;;;;;27.87;8.23;;;;;;;24.87;100.00;100488.34;5589002;31;34863;-74
2023/09/18 09:46:51;;;;;;;59.38;9.13;;;;;;;24.90;100.00;100487.00;5590952;31;34185;-75
2023/09/18 09:49:55;;;;;;;12.23;7.30;;;;;;;24.71;100.00;100481.13;5591768;31;33744;-73
2023/09/18 09:52:58;;;;;;;13.75;7.72;;;;;;;24.83;99.36;100478.25;5590440;31;34094;-73
2023/09/18 09:56:02;;;;;;;12.93;7.43;;;;;;;24.90;100.00;100471.53;5589590;31;34190;-73
2023/09/18 09:59:07;;;;;;;13.60;7.15;;;;;;;25.05;96.82;100463.53;5589051;31;34052;-75
2023/09/18 10:02:19;;;;;;;12.00;7.25;;;;;;;25.09;97.79;100455.66;5589599;31;34025;-72
2023/09/18 10:05:28;;;;;;;10.75;7.28;;;;;;;24.57;95.61;100441.94;5589931;31;34011;-72
2023/09/18 10:08:33;;;;;;;15.55;7.62;;;;;;;24.90;92.80;100443.59;5589735;31;34165;-73
2023/09/18 10:11:41;;;;;;;11.30;7.28;;;;;;;24.76;96.49;100435.03;5589815;31;34302;-73
2023/09/18 10:14:48;;;;;;;9.98;7.03;;;;;;;24.78;94.11;100434.78;5590470;31;34163;-75
2023/09/18 10:18:17;;;;;;;11.40;7.30;;;;;;;25.00;92.38;100430.91;5589556;31;34194;-74
2023/09/18 10:21:32;;;;;;;10.32;7.28;;;;;;;25.10;89.41;100436.41;5589745;31;34236;-74
2023/09/18 10:24:37;;;;;;;11.65;6.95;;;;;;;25.39;88.84;100427.88;5589393;31;34139;-74
2023/09/18 10:27:43;;;;;;;10.43;7.10;;;;;;;25.66;87.43;100425.84;5590001;31;34768;-73
2023/09/18 10:30:46;;;;;;;24.55;7.87;;;;;;;25.60;83.98;100424.22;5589785;31;34119;-73
2023/09/18 10:33:50;;;;;;;13.68;7.35;;;;;;;25.81;89.17;100419.66;5589381;31;34183;-72
2023/09/18 10:36:54;;;;;;;11.18;6.68;;;;;;;25.94;84.90;100411.00;5589142;31;33695;-74
2023/09/18 10:39:58;;;;;;;11.25;7.15;;;;;;;26.06;78.77;100402.59;5589754;31;34048;-74
2023/09/18 10:43:04;;;;;;;12.55;7.43;;;;;;;26.08;80.22;100401.25;5589165;31;34143;-74
2023/09/18 10:46:07;;;;;;;14.50;6.65;;;;;;;26.19;77.43;100394.72;5589107;31;33972;-74
2023/09/18 10:49:10;;;;;;;13.27;6.87;;;;;;;27.12;71.84;100391.72;5589422;31;34119;-73
2023/09/18 10:52:14;;;;;;;10.88;6.25;;;;;;;28.71;61.92;100394.13;5589445;31;34283;-74
2023/09/18 10:55:17;;;;;;;12.20;6.37;;;;;;;30.93;54.22;100390.31;5590845;31;34181;-73
2023/09/18 10:58:27;;;;;;;27.83;6.35;;;;;;;32.50;49.31;100387.75;5589265;31;34083;-75
2023/09/18 11:01:30;;;;;;;12.20;6.25;;;;;;;32.20;48.13;100380.25;5588976;31;34203;-75
2023/09/18 11:04:33;;;;;;;8.65;5.78;;;;;;;32.34;46.96;100392.81;5589465;31;34107;-75
2023/09/18 11:07:36;;;;;;;10.60;5.50;;;;;;;33.87;43.64;100384.00;5588866;31;34532;-75
2023/09/18 11:10:55;;;;;;;22.52;6.20;;;;;;;32.63;45.45;100383.34;5589390;31;34788;-75
2023/09/18 11:13:59;;;;;;;;;;;;;;;33.85;43.07;100378.81;5589569;31;34066;-76
2023/09/18 11:17:03;;;;;;;6.45;5.70;;;;;;;33.23;44.64;100374.59;5588758;31;34996;-76
2023/09/18 11:20:15;;;;;;;9.18;5.95;;;;;;;32.63;44.94;100380.59;5589064;31;34084;-75
2023/09/18 11:23:18;;;;;;;12.10;5.65;;;;;;;32.63;45.29;100361.34;5588997;31;34266;-73
2023/09/18 11:26:23;;;;;;;10.45;5.25;;;;;;;32.21;45.94;100352.50;5589245;31;34090;-74
2023/09/18 11:29:28;;;;;;;10.10;5.22;;;;;;;32.83;45.91;100355.31;5589512;31;34984;-75
2023/09/18 11:32:39;;;;;;;14.68;6.20;;;;;;;34.74;40.92;100356.06;5589348;31;34718;-76
2023/09/18 11:35:52;;;;;;;12.93;5.28;;;;;;;34.96;40.67;100349.47;5587724;31;34507;-74
2023/09/18 11:38:57;;;;;;;13.88;6.00;;;;;;;34.11;41.23;100351.28;5588826;31;34006;-74
2023/09/18 11:42:08;;;;;;;14.80;5.55;;;;;;;34.14;41.84;100352.56;5589024;31;34278;-76
2023/09/18 11:45:17;;;;;;;10.30;6.25;;;;;;;33.89;41.86;100340.44;5588809;31;34149;-75
2023/09/18 11:48:20;;;;;;;;;;;;;;;31.26;46.48;100331.59;5588976;31;34870;-73
2023/09/18 11:51:24;;;;;;;7.78;5.97;;;;;;;31.16;47.89;100333.72;5589100;31;34459;-74
2023/09/18 11:54:29;;;;;;;11.55;6.12;;;;;;;32.09;45.50;100329.47;5588743;31;34213;-75
2023/09/18 11:57:35;;;;;;;8.52;5.87;;;;;;;31.97;46.10;100319.03;5587688;31;34946;-74
2023/09/18 12:00:48;;;;;;;19.48;5.78;;;;;;;33.16;44.04;100315.37;5588710;31;34355;-74
2023/09/18 12:03:55;;;;;;;10.15;5.75;;;;;;;33.32;42.93;100303.94;5587774;31;34337;-75
2023/09/18 12:07:00;;;;;;;8.98;6.32;;;;;;;33.05;43.56;100305.78;5588599;31;35103;-76
2023/09/18 12:10:08;;;;;;;8.90;6.28;;;;;;;32.21;45.60;100291.31;5588397;31;35203;-75
2023/09/18 12:13:12;;;;;;;12.60;6.35;;;;;;;31.32;46.54;100296.66;5587656;31;34015;-75
2023/09/18 12:16:15;;;;;;;10.60;6.40;;;;;;;31.26;46.35;100290.47;5588125;31;34769;-75
2023/09/18 12:19:19;;;;;;;9.60;5.93;;;;;;;33.75;41.63;100291.06;5587484;31;33962;-75
2023/09/18 12:22:30;;;;;;;10.93;6.10;;;;;;;31.65;44.44;100292.66;5588331;31;34112;-75
2023/09/18 12:25:33;;;;;;;9.25;5.70;;;;;;;33.25;41.98;100287.13;5588132;31;34947;-75
2023/09/18 12:28:36;;;;;;;10.65;5.82;;;;;;;33.42;41.37;100285.19;5587040;31;34043;-75
2023/09/18 12:31:39;;;;;;;9.68;5.80;;;;;;;34.41;38.91;100286.12;5588045;31;34144;-77
2023/09/18 12:34:43;;;;;;;10.90;5.80;;;;;;;34.69;38.31;100292.88;5588077;31;34670;-74
2023/09/18 12:37:45;;;;;;;7.72;5.60;;;;;;;35.30;37.40;100282.31;5587830;31;34845;-75
2023/09/18 12:40:49;;;;;;;10.68;5.75;;;;;;;37.49;34.19;100260.72;5587047;31;34205;-74
2023/09/18 12:43:53;;;;;;;8.65;5.97;;;;;;;35.33;36.69;100265.13;5588125;31;34283;-75
2023/09/18 12:46:57;;;;;;;9.05;6.15;;;;;;;34.50;38.08;100261.31;5589605;31;34072;-76
2023/09/18 12:50:04;;;;;;;9.25;5.30;;;;;;;35.96;36.32;100261.19;5590185;31;34055;-75
2023/09/18 12:53:12;;;;;;;7.22;4.90;;;;;;;37.39;33.59;100264.78;5590478;31;34138;-75
2023/09/18 12:56:14;;;;;;;12.63;5.47;;;;;;;37.19;32.95;100249.16;5589575;31;34718;-75
2023/09/18 12:59:18;;;;;;;6.80;5.20;;;;;;;33.83;39.01;100248.16;5590416;31;34140;-74
2023/09/18 13:02:21;;;;;;;8.30;6.00;;;;;;;35.22;36.36;100241.84;5589539;31;34048;-75
2023/09/18 13:05:34;;;;;;;19.17;6.32;;;;;;;34.38;37.65;100239.94;5590043;31;34823;-74
2023/09/18 13:08:38;;;;;;;9.75;5.57;;;;;;;32.68;40.12;100234.84;5589768;31;34072;-74
2023/09/18 13:11:58;;;;;;;7.60;5.62;;;;;;;32.76;39.73;100228.59;5590002;31;34533;-74
2023/09/18 13:15:04;;;;;;;12.37;5.60;;;;;;;34.59;38.26;100234.53;5589902;31;34160;-77
2023/09/18 13:18:13;;;;;;;12.20;5.82;;;;;;;35.07;36.80;100225.84;5590107;31;34750;-74
2023/09/18 13:21:16;;;;;;;8.60;5.40;;;;;;;35.72;35.09;100220.50;5590439;31;34141;-73
2023/09/18 13:24:30;;;;;;;11.25;5.80;;;;;;;36.83;33.40;100216.81;5589073;31;34773;-75
2023/09/18 13:27:33;;;;;;;10.57;5.35;;;;;;;35.29;35.01;100217.28;5590138;31;34244;-74
2023/09/18 13:30:40;;;;;;;9.90;5.75;;;;;;;34.44;37.05;100217.41;5589864;31;33293;-74
2023/09/18 13:33:44;;;;;;;11.70;5.78;;;;;;;35.09;37.82;100212.53;5590043;31;34781;-74
2023/09/18 13:36:48;;;;;;;12.85;5.90;;;;;;;36.64;34.35;100208.28;5590029;31;34163;-74
2023/09/18 13:39:51;;;;;;;15.23;6.03;;;;;;;34.52;37.75;100201.19;5589786;31;34271;-75
2023/09/18 13:42:54;;;;;;;13.20;5.78;;;;;;;32.73;40.43;100177.84;5589487;31;34058;-73
2023/09/18 13:45:58;;;;;;;10.38;5.70;;;;;;;32.64;41.54;100182.50;5589479;31;34838;-75
2023/09/18 13:49:04;;;;;;;12.75;5.95;;;;;;;33.31;39.18;100178.59;5589568;31;35087;-74
2023/09/18 13:52:06;;;;;;;8.88;5.57;;;;;;;34.30;37.49;100171.94;5589641;31;34296;-75
2023/09/18 13:55:10;;;;;;;11.48;5.68;;;;;;;35.06;36.44;100171.84;5589490;31;34074;-74
2023/09/18 13:58:13;;;;;;;15.05;6.10;;;;;;;34.05;37.79;100163.41;5588946;31;34766;-75
2023/09/18 14:01:16;;;;;;;18.25;6.43;;;;;;;35.19;35.88;100163.34;5589580;31;34132;-74
2023/09/18 14:04:22;;;;;;;35.92;6.62;;;;;;;32.94;40.74;100161.56;5589611;31;34191;-74